Time;durP1;ratioP1;P1;durP2;ratioP2;P2;SDS_P1;SDS_P2;PMS_P1;PMS_P2;Temp;Humidity;BMP_temperature;BMP_pressure;BME280_temperature;BME280_humidity;BME280_pressure;Samples;Min_cycle;Max_cycle;Signal;HPM_P1;HPM_P2
2021/10/23 00:00:27;;;;;;;5.47;1.60;;;5.80;99.90;;;;;;5040419;28;20192;-74
2021/10/23 00:02:53;;;;;;;2.03;1.53;;;5.80;99.90;;;;;;5038850;28;20423;-74
2021/10/23 00:05:19;;;;;;;3.20;1.60;;;5.80;99.90;;;;;;5035473;28;21102;-74
2021/10/23 00:07:45;;;;;;;5.57;1.67;;;5.90;99.90;;;;;;5037712;28;20627;-74
2021/10/23 00:10:10;;;;;;;7.17;2.03;;;6.00;99.90;;;;;;5040543;28;20274;-74
2021/10/23 00:12:37;;;;;;;1.77;1.67;;;5.90;99.90;;;;;;5040512;28;20530;-74
2021/10/23 00:15:05;;;;;;;5.13;1.80;;;6.00;99.90;;;;;;5037018;28;20222;-74
2021/10/23 00:17:31;;;;;;;4.03;1.33;;;6.10;99.90;;;;;;5038777;28;20792;-74
2021/10/23 00:20:00;;;;;;;4.73;1.40;;;6.00;99.90;;;;;;5041239;28;20405;-74
2021/10/23 00:22:27;;;;;;;6.50;2.13;;;6.10;99.90;;;;;;5038530;28;20178;-74
2021/10/23 00:24:53;;;;;;;6.57;1.53;;;6.00;99.90;;;;;;5039307;28;20943;-74
2021/10/23 00:27:18;;;;;;;6.37;1.53;;;6.00;99.90;;;;;;5035943;28;20428;-74
2021/10/23 00:29:44;;;;;;;11.50;2.00;;;6.00;99.90;;;;;;5036748;28;20174;-74
2021/10/23 00:32:09;;;;;;;3.53;1.30;;;6.00;99.90;;;;;;5038025;28;20184;-74
2021/10/23 00:34:35;;;;;;;5.30;1.40;;;5.90;99.90;;;;;;5039888;28;20276;-74
2021/10/23 00:37:01;;;;;;;5.03;1.80;;;5.90;99.90;;;;;;5038430;28;20759;-74
2021/10/23 00:39:27;;;;;;;10.27;1.67;;;5.90;99.90;;;;;;5037865;28;20205;-74
2021/10/23 00:41:52;;;;;;;6.77;2.00;;;6.00;99.90;;;;;;5038631;28;20216;-75
2021/10/23 00:44:35;;;;;;;9.00;2.27;;;6.00;99.90;;;;;;5039200;28;20973;-74
2021/10/23 00:47:12;;;;;;;5.17;1.57;;;6.00;99.90;;;;;;5035973;28;20223;-74
2021/10/23 00:49:38;;;;;;;7.33;1.70;;;6.00;99.90;;;;;;5041383;28;20424;-74
2021/10/23 00:52:06;;;;;;;3.63;1.90;;;6.00;99.90;;;;;;5036876;28;20429;-74
2021/10/23 00:54:33;;;;;;;8.60;1.97;;;6.00;99.90;;;;;;5039314;28;20778;-74
2021/10/23 00:56:59;;;;;;;3.67;1.87;;;6.00;99.90;;;;;;5035160;28;20475;-74
2021/10/23 00:59:27;;;;;;;9.00;3.33;;;5.90;99.90;;;;;;5032691;28;20536;-74
2021/10/23 01:01:53;;;;;;;1.77;1.67;;;5.90;99.90;;;;;;5037349;28;20490;-74
2021/10/23 01:04:20;;;;;;;4.43;1.83;;;6.00;99.90;;;;;;5041109;28;20963;-74
2021/10/23 01:06:46;;;;;;;3.33;2.33;;;6.00;99.90;;;;;;5036936;28;20427;-74
2021/10/23 01:09:14;;;;;;;4.13;1.60;;;6.00;99.90;;;;;;5040449;28;20445;-74
2021/10/23 01:11:40;;;;;;;7.13;1.97;;;6.10;99.90;;;;;;5036495;28;20435;-74
2021/10/23 01:14:15;;;;;;;7.40;2.70;;;6.00;99.90;;;;;;5039533;28;20940;-74
2021/10/23 01:16:41;;;;;;;7.30;1.30;;;6.00;99.90;;;;;;5038215;28;20427;-74
2021/10/23 01:19:11;;;;;;;14.87;2.20;;;6.00;99.90;;;;;;5037716;28;20466;-74
2021/10/23 01:21:38;;;;;;;3.03;1.70;;;6.00;99.90;;;;;;5040062;28;20515;-74
2021/10/23 01:24:08;;;;;;;4.97;1.83;;;6.00;99.90;;;;;;5036885;28;20441;-74
2021/10/23 01:26:38;;;;;;;6.70;2.20;;;5.90;99.90;;;;;;5037622;28;20505;-74
2021/10/23 01:29:10;;;;;;;4.17;2.33;;;6.00;99.90;;;;;;5036386;28;20443;-74
2021/10/23 01:31:36;;;;;;;6.23;1.83;;;6.00;99.90;;;;;;5034903;28;20905;-74
2021/10/23 01:34:13;;;;;;;3.23;2.23;;;6.00;99.90;;;;;;5037350;28;20506;-74
2021/10/23 01:36:49;;;;;;;6.80;2.47;;;5.90;99.90;;;;;;5038310;28;20208;-74
2021/10/23 01:39:16;;;;;;;5.03;1.70;;;5.90;99.90;;;;;;5041297;28;20760;-74
2021/10/23 01:41:42;;;;;;;7.33;2.20;;;5.90;99.90;;;;;;5043487;28;20521;-74
2021/10/23 01:44:12;;;;;;;9.00;2.40;;;6.00;99.90;;;;;;5040130;28;20443;-74
2021/10/23 01:46:38;;;;;;;5.80;2.10;;;6.00;99.90;;;;;;5041505;28;20525;-74
2021/10/23 01:49:05;;;;;;;12.33;2.57;;;6.00;99.90;;;;;;5039205;28;20459;-74
2021/10/23 01:51:32;;;;;;;5.93;1.87;;;6.00;99.90;;;;;;5041939;28;20900;-74
2021/10/23 01:54:00;;;;;;;8.23;2.50;;;5.90;99.90;;;;;;5042676;28;20485;-74
2021/10/23 01:56:27;;;;;;;6.20;1.27;;;5.90;99.90;;;;;;5042520;28;20479;-74
2021/10/23 01:58:52;;;;;;;7.50;1.83;;;6.00;99.90;;;;;;5040013;28;20460;-74
2021/10/23 02:01:18;;;;;;;4.90;1.70;;;6.00;99.90;;;;;;5040658;28;20443;-74
2021/10/23 02:03:43;;;;;;;4.93;2.20;;;5.90;99.90;;;;;;5040889;28;20182;-74
2021/10/23 02:06:10;;;;;;;5.10;1.80;;;5.90;99.90;;;;;;5040307;28;20181;-74
2021/10/23 02:08:36;;;;;;;2.97;1.60;;;6.00;99.90;;;;;;5040710;28;20611;-74
2021/10/23 02:11:03;;;;;;;11.00;2.23;;;5.90;99.90;;;;;;5042061;28;21076;-74
2021/10/23 02:13:29;;;;;;;14.73;2.03;;;5.90;99.90;;;;;;5043533;28;20537;-74
2021/10/23 02:15:54;;;;;;;5.80;1.60;;;5.80;99.90;;;;;;5040517;28;20468;-74
2021/10/23 02:18:20;;;;;;;6.10;1.57;;;5.80;99.90;;;;;;5039337;28;20460;-74
2021/10/23 02:20:45;;;;;;;4.20;1.47;;;5.80;99.90;;;;;;5042742;28;20681;-74
2021/10/23 02:23:11;;;;;;;4.03;1.80;;;5.80;99.90;;;;;;5042138;28;20200;-74
2021/10/23 02:25:37;;;;;;;5.07;1.80;;;5.80;99.90;;;;;;5043671;28;20260;-74
2021/10/23 02:28:02;;;;;;;7.90;1.77;;;5.80;99.90;;;;;;5040216;28;20181;-74
2021/10/23 02:30:28;;;;;;;5.37;2.00;;;5.90;99.90;;;;;;5039588;28;20280;-74
2021/10/23 02:32:54;;;;;;;1.63;1.53;;;5.80;99.90;;;;;;5042909;28;20185;-74
2021/10/23 02:35:20;;;;;;;4.03;1.60;;;5.80;99.90;;;;;;5041996;28;20197;-74
2021/10/23 02:37:46;;;;;;;4.90;1.80;;;5.80;99.90;;;;;;5040032;28;20444;-74
2021/10/23 02:40:13;;;;;;;6.53;2.27;;;5.70;99.90;;;;;;5044172;28;20185;-74
2021/10/23 02:42:38;;;;;;;7.07;2.10;;;5.70;99.90;;;;;;5039010;28;20435;-74
2021/10/23 02:45:06;;;;;;;4.87;1.47;;;5.70;99.90;;;;;;5043684;28;20812;-74
2021/10/23 02:47:32;;;;;;;7.93;1.57;;;5.70;99.90;;;;;;5039550;28;20260;-74
2021/10/23 02:49:58;;;;;;;11.97;2.90;;;5.70;99.90;;;;;;5043380;28;20807;-74
2021/10/23 02:52:24;;;;;;;3.77;1.80;;;5.70;99.90;;;;;;5038233;28;20432;-74
2021/10/23 02:54:49;;;;;;;3.23;1.90;;;5.70;99.90;;;;;;5041182;28;20539;-74
2021/10/23 02:57:15;;;;;;;12.30;2.53;;;5.70;99.90;;;;;;5038342;28;20178;-74
2021/10/23 02:59:43;;;;;;;7.17;2.40;;;5.70;99.90;;;;;;5039971;28;20205;-74
2021/10/23 03:02:08;;;;;;;3.47;1.30;;;5.70;99.90;;;;;;5037979;28;20182;-74
2021/10/23 03:04:34;;;;;;;8.83;1.77;;;5.70;99.90;;;;;;5041696;28;20917;-74
2021/10/23 03:07:00;;;;;;;4.90;1.73;;;5.60;99.90;;;;;;5039430;28;20178;-74
2021/10/23 03:09:25;;;;;;;8.47;1.73;;;5.60;99.90;;;;;;5039218;28;20201;-74
2021/10/23 03:11:51;;;;;;;4.70;1.80;;;5.60;99.90;;;;;;5038901;28;20186;-74
2021/10/23 03:14:17;;;;;;;6.47;2.30;;;5.60;99.90;;;;;;5041976;28;20185;-74
2021/10/23 03:16:43;;;;;;;2.97;1.60;;;5.60;99.90;;;;;;5038860;28;20186;-74
2021/10/23 03:19:08;;;;;;;5.90;1.90;;;5.50;99.90;;;;;;5041242;28;20212;-74
2021/10/23 03:21:34;;;;;;;4.70;1.80;;;5.50;99.90;;;;;;5039302;28;20606;-74
2021/10/23 03:24:00;;;;;;;5.17;1.70;;;5.60;99.90;;;;;;5041355;28;20209;-74
2021/10/23 03:26:25;;;;;;;10.70;1.60;;;5.60;99.90;;;;;;5037373;28;20244;-74
2021/10/23 03:28:51;;;;;;;3.23;1.30;;;5.50;99.90;;;;;;5038778;28;20189;-74
2021/10/23 03:31:17;;;;;;;3.33;1.53;;;5.50;99.90;;;;;;5041841;28;20639;-74
2021/10/23 03:33:42;;;;;;;3.63;1.70;;;5.50;99.90;;;;;;5040527;28;20608;-74
2021/10/23 03:36:08;;;;;;;1.50;1.33;;;5.40;99.90;;;;;;5039386;28;20184;-74
2021/10/23 03:38:34;;;;;;;4.00;1.90;;;5.40;99.90;;;;;;5038150;28;20232;-74
2021/10/23 03:41:00;;;;;;;3.20;1.67;;;5.30;99.90;;;;;;5039964;28;20200;-74
2021/10/23 03:43:25;;;;;;;3.80;2.70;;;5.30;99.90;;;;;;5040528;28;20439;-74
2021/10/23 03:45:51;;;;;;;7.40;1.50;;;5.20;99.90;;;;;;5039462;28;20555;-74
2021/10/23 03:48:17;;;;;;;2.40;1.40;;;5.10;99.90;;;;;;5039313;28;20200;-74
2021/10/23 03:50:43;;;;;;;4.63;1.50;;;5.20;99.90;;;;;;5039581;28;20262;-74
2021/10/23 03:53:08;;;;;;;7.83;1.87;;;5.10;99.90;;;;;;5039002;28;20447;-74
2021/10/23 03:55:34;;;;;;;9.80;1.63;;;5.10;99.90;;;;;;5039780;28;20202;-74
2021/10/23 03:58:00;;;;;;;5.70;2.20;;;5.20;99.90;;;;;;5038543;28;20260;-74
2021/10/23 04:00:25;;;;;;;3.70;1.43;;;5.30;99.90;;;;;;5038538;28;20178;-74
2021/10/23 04:02:51;;;;;;;1.63;1.37;;;5.40;99.90;;;;;;5041564;28;20188;-74
2021/10/23 04:05:17;;;;;;;5.40;1.50;;;5.30;99.90;;;;;;5036604;28;20534;-74
2021/10/23 04:07:42;;;;;;;5.13;1.70;;;5.40;99.90;;;;;;5036356;28;20431;-74
2021/10/23 04:10:08;;;;;;;2.80;1.47;;;5.40;99.90;;;;;;5040663;28;20207;-74
2021/10/23 04:12:34;;;;;;;4.53;1.70;;;5.40;99.90;;;;;;5038984;28;20504;-74
2021/10/23 04:15:00;;;;;;;3.93;1.10;;;5.40;99.90;;;;;;5041371;28;20432;-74
2021/10/23 04:17:27;;;;;;;4.90;1.67;;;5.30;99.90;;;;;;5036905;28;20247;-74
2021/10/23 04:19:53;;;;;;;5.17;1.70;;;5.40;99.90;;;;;;5038863;28;20508;-74
2021/10/23 04:22:18;;;;;;;2.00;1.40;;;5.40;99.90;;;;;;5038328;28;20447;-74
2021/10/23 04:24:44;;;;;;;9.27;1.90;;;5.40;99.90;;;;;;5038656;28;20181;-74
2021/10/23 04:27:10;;;;;;;4.57;1.67;;;5.40;99.90;;;;;;5037884;28;20186;-74
2021/10/23 04:29:37;;;;;;;7.40;1.70;;;5.30;99.90;;;;;;5040392;28;20932;-74
2021/10/23 04:32:03;;;;;;;2.50;2.10;;;5.30;99.90;;;;;;5039888;28;20268;-75
2021/10/23 04:34:28;;;;;;;5.20;1.93;;;5.30;99.90;;;;;;5040164;28;20439;-74
2021/10/23 04:36:54;;;;;;;6.87;2.17;;;5.30;99.90;;;;;;5034530;28;20450;-74
2021/10/23 04:39:20;;;;;;;5.43;1.87;;;5.30;99.90;;;;;;5040738;28;20259;-74
2021/10/23 04:41:45;;;;;;;3.47;1.80;;;5.30;99.90;;;;;;5037344;28;20282;-74
2021/10/23 04:44:11;;;;;;;9.93;2.07;;;5.30;99.90;;;;;;5041608;28;20178;-74
2021/10/23 04:46:37;;;;;;;4.27;2.00;;;5.30;99.90;;;;;;5039023;28;20220;-74
2021/10/23 04:49:02;;;;;;;6.67;2.03;;;5.40;99.90;;;;;;5038257;28;20216;-74
2021/10/23 04:51:28;;;;;;;7.17;1.70;;;5.30;99.90;;;;;;5038469;28;20189;-74
2021/10/23 04:53:54;;;;;;;10.57;1.90;;;5.30;99.90;;;;;;5036768;28;20261;-74
2021/10/23 04:56:19;;;;;;;6.73;2.00;;;5.40;99.90;;;;;;5040134;28;20195;-74
2021/10/23 04:58:45;;;;;;;6.40;2.23;;;5.40;99.90;;;;;;5037809;28;20208;-74
2021/10/23 05:01:12;;;;;;;3.53;2.27;;;5.40;99.90;;;;;;5038071;28;20766;-74
2021/10/23 05:03:37;;;;;;;10.13;1.60;;;5.40;99.90;;;;;;5038654;28;20434;-74
2021/10/23 05:06:03;;;;;;;8.63;2.00;;;5.40;99.90;;;;;;5040529;28;20439;-74
2021/10/23 05:08:29;;;;;;;4.67;1.87;;;5.50;99.90;;;;;;5035770;28;20458;-74
2021/10/23 05:10:55;;;;;;;3.67;1.90;;;5.50;99.90;;;;;;5041036;28;20635;-74
2021/10/23 05:13:21;;;;;;;3.20;1.47;;;5.50;99.90;;;;;;5036749;28;20184;-74
2021/10/23 05:15:46;;;;;;;12.27;2.30;;;5.40;99.90;;;;;;5040776;28;20527;-74
2021/10/23 05:18:12;;;;;;;3.80;1.60;;;5.40;99.90;;;;;;5039978;28;20287;-74
2021/10/23 05:20:38;;;;;;;3.80;2.10;;;5.40;99.90;;;;;;5039966;28;20538;-74
2021/10/23 05:23:03;;;;;;;9.90;2.50;;;5.40;99.90;;;;;;5041220;28;20519;-74
2021/10/23 05:25:29;;;;;;;6.20;1.93;;;5.50;99.90;;;;;;5036565;28;20230;-74
2021/10/23 05:27:54;;;;;;;8.00;2.37;;;5.40;99.90;;;;;;5041406;28;20185;-74
2021/10/23 05:30:20;;;;;;;4.03;1.60;;;5.50;99.90;;;;;;5045491;28;20181;-74
2021/10/23 05:32:46;;;;;;;4.40;1.77;;;5.40;99.90;;;;;;5043079;28;20258;-74
2021/10/23 05:35:11;;;;;;;4.80;2.07;;;5.40;99.90;;;;;;5043193;28;20197;-74
2021/10/23 05:37:37;;;;;;;11.13;2.30;;;5.40;99.90;;;;;;5036221;28;20224;-74
2021/10/23 05:40:04;;;;;;;11.53;2.20;;;5.40;99.90;;;;;;5037909;28;20201;-74
2021/10/23 05:42:29;;;;;;;5.33;1.67;;;5.40;99.90;;;;;;5033621;28;20177;-74
2021/10/23 05:44:55;;;;;;;7.30;2.70;;;5.40;99.90;;;;;;5042066;28;20823;-74
2021/10/23 05:47:20;;;;;;;3.10;2.20;;;5.40;99.90;;;;;;5040569;28;20182;-74
2021/10/23 05:49:46;;;;;;;4.07;1.73;;;5.30;99.90;;;;;;5039676;28;20225;-74
2021/10/23 05:52:12;;;;;;;5.03;2.10;;;5.30;99.90;;;;;;5039861;28;20537;-74
2021/10/23 05:54:37;;;;;;;8.70;1.60;;;5.20;99.90;;;;;;5038107;28;20181;-74
2021/10/23 05:57:08;;;;;;;5.50;1.90;;;5.20;99.90;;;;;;5036163;28;20254;-74
2021/10/23 05:59:37;;;;;;;5.93;2.30;;;5.30;99.90;;;;;;5039506;28;20634;-74
2021/10/23 06:04:48;;;;;;;3.03;1.53;;;5.30;99.90;;;;;;5039406;28;20893;-74
2021/10/23 06:07:15;;;;;;;7.43;1.93;;;5.30;99.90;;;;;;5038923;28;20768;-74
2021/10/23 06:09:42;;;;;;;4.90;1.77;;;5.30;99.90;;;;;;5038974;28;20439;-74
2021/10/23 06:12:08;;;;;;;6.33;2.23;;;5.30;99.90;;;;;;5037420;28;21020;-74
2021/10/23 06:14:33;;;;;;;4.73;2.07;;;5.20;99.90;;;;;;5043726;28;20439;-74
2021/10/23 06:16:59;;;;;;;12.97;2.03;;;5.30;99.90;;;;;;5041555;28;20222;-74
2021/10/23 06:19:24;;;;;;;7.30;1.70;;;5.30;99.90;;;;;;5043795;28;20237;-74
2021/10/23 06:21:50;;;;;;;4.03;1.67;;;5.40;99.90;;;;;;5041394;28;20169;-74
2021/10/23 06:24:16;;;;;;;4.37;2.20;;;5.40;99.90;;;;;;5041527;28;20180;-74
2021/10/23 06:26:41;;;;;;;5.73;2.60;;;5.40;99.90;;;;;;5039789;28;20177;-74
2021/10/23 06:29:07;;;;;;;10.93;2.67;;;5.50;99.90;;;;;;5040948;28;20218;-74
2021/10/23 06:31:33;;;;;;;5.30;2.07;;;5.60;99.90;;;;;;5040906;28;20188;-74
2021/10/23 06:33:58;;;;;;;4.37;1.63;;;5.60;99.90;;;;;;5045865;28;20184;-74
2021/10/23 06:36:24;;;;;;;4.07;1.93;;;5.70;99.90;;;;;;5041772;28;20185;-74
2021/10/23 06:38:49;;;;;;;7.50;2.07;;;5.70;99.90;;;;;;5040458;28;20200;-74
2021/10/23 06:41:15;;;;;;;3.97;2.13;;;5.70;99.90;;;;;;5040419;28;20604;-74
2021/10/23 06:43:41;;;;;;;6.90;2.23;;;5.70;99.90;;;;;;5041992;28;20216;-74
2021/10/23 06:46:06;;;;;;;5.67;1.90;;;5.80;99.90;;;;;;5040656;28;20180;-74
2021/10/23 06:48:32;;;;;;;6.83;2.13;;;5.80;99.90;;;;;;5042370;28;20200;-74
2021/10/23 06:50:57;;;;;;;6.93;2.03;;;5.70;99.90;;;;;;5041410;28;20319;-74
2021/10/23 06:53:23;;;;;;;4.40;2.00;;;5.90;99.90;;;;;;5042309;28;20189;-74
2021/10/23 06:55:49;;;;;;;9.43;2.57;;;5.90;99.90;;;;;;5037721;28;20293;-74
2021/10/23 06:58:15;;;;;;;3.27;1.80;;;5.90;99.90;;;;;;5040485;28;20546;-74
2021/10/23 07:00:40;;;;;;;9.40;2.43;;;6.00;99.90;;;;;;5039904;28;20226;-74
2021/10/23 07:03:06;;;;;;;3.77;1.87;;;6.10;99.90;;;;;;5042347;28;20178;-74
2021/10/23 07:05:32;;;;;;;4.00;1.40;;;6.00;99.90;;;;;;5042459;28;20180;-74
2021/10/23 07:07:58;;;;;;;7.80;2.43;;;6.00;99.90;;;;;;5041256;28;20188;-74
2021/10/23 07:10:25;;;;;;;2.40;2.00;;;6.00;99.90;;;;;;5038249;28;20433;-74
2021/10/23 07:12:51;;;;;;;4.73;2.13;;;6.00;99.90;;;;;;5040437;28;20430;-74
2021/10/23 07:15:17;;;;;;;5.43;2.17;;;6.10;99.90;;;;;;5037569;28;20449;-74
2021/10/23 07:17:43;;;;;;;3.60;1.77;;;6.10;99.90;;;;;;5037184;28;20511;-74
2021/10/23 07:20:09;;;;;;;5.87;1.90;;;6.10;99.90;;;;;;5038988;28;20542;-74
2021/10/23 07:22:35;;;;;;;7.17;2.20;;;6.10;99.90;;;;;;5037083;28;20176;-74
2021/10/23 07:25:02;;;;;;;5.50;2.30;;;6.20;99.90;;;;;;5035648;28;20525;-74
2021/10/23 07:27:28;;;;;;;5.13;2.20;;;6.20;99.90;;;;;;5037421;28;20436;-74
2021/10/23 07:29:53;;;;;;;7.50;1.87;;;6.30;99.90;;;;;;5039898;28;20459;-73
2021/10/23 07:32:19;;;;;;;8.10;1.93;;;6.30;99.90;;;;;;5037509;28;20178;-74
2021/10/23 07:34:45;;;;;;;8.80;2.00;;;6.30;99.90;;;;;;5037717;28;20516;-74
2021/10/23 07:37:11;;;;;;;7.57;2.30;;;6.50;99.90;;;;;;5037143;28;20177;-75
2021/10/23 07:39:36;;;;;;;4.93;2.10;;;6.50;99.90;;;;;;5035278;28;20201;-74
2021/10/23 07:42:03;;;;;;;6.17;1.80;;;6.60;99.90;;;;;;5038577;28;20424;-75
2021/10/23 07:44:29;;;;;;;6.47;2.30;;;6.60;99.90;;;;;;5040483;28;20178;-75
2021/10/23 07:46:55;;;;;;;10.57;2.43;;;6.70;99.90;;;;;;5037718;28;20421;-74
2021/10/23 07:49:21;;;;;;;6.70;2.17;;;6.70;99.90;;;;;;5041028;28;20182;-77
2021/10/23 07:51:46;;;;;;;9.47;2.07;;;6.90;99.90;;;;;;5040719;28;20543;-78
2021/10/23 07:54:12;;;;;;;9.10;1.90;;;7.00;99.90;;;;;;5041991;28;20267;-76
2021/10/23 07:56:42;;;;;;;4.97;2.07;;;7.00;99.90;;;;;;5036316;28;20201;-76
2021/10/23 07:59:08;;;;;;;4.87;1.80;;;7.00;99.90;;;;;;5040393;28;20730;-74
2021/10/23 08:01:34;;;;;;;11.47;3.13;;;7.00;99.90;;;;;;5037406;28;20490;-74
2021/10/23 08:04:00;;;;;;;3.93;2.03;;;7.10;99.90;;;;;;5039238;28;20185;-76
2021/10/23 08:06:27;;;;;;;8.33;2.30;;;7.10;99.90;;;;;;5037172;28;20186;-75
2021/10/23 08:08:53;;;;;;;11.63;2.30;;;7.10;99.90;;;;;;5038291;28;20200;-76
2021/10/23 08:11:18;;;;;;;4.30;1.70;;;7.10;99.90;;;;;;5041130;28;20441;-76
2021/10/23 08:13:44;;;;;;;5.90;2.07;;;7.20;99.90;;;;;;5039203;28;20826;-76
2021/10/23 08:16:19;;;;;;;3.57;2.40;;;7.30;99.90;;;;;;5040144;28;20211;-77
2021/10/23 08:18:45;;;;;;;4.30;2.20;;;7.40;99.90;;;;;;5028642;28;20452;-76
2021/10/23 08:21:10;;;;;;;5.23;1.83;;;7.40;99.90;;;;;;5038417;28;20489;-76
2021/10/23 08:23:36;;;;;;;6.60;1.70;;;7.40;99.90;;;;;;5038928;28;20174;-76
2021/10/23 08:26:02;;;;;;;9.40;2.57;;;7.50;99.90;;;;;;5035076;28;20684;-76
2021/10/23 08:28:27;;;;;;;4.70;2.23;;;7.60;99.90;;;;;;5036419;28;20185;-76
2021/10/23 08:30:53;;;;;;;3.97;1.97;;;7.60;99.90;;;;;;5037775;28;20492;-76
2021/10/23 08:33:19;;;;;;;5.43;1.83;;;7.70;99.90;;;;;;5040105;28;20187;-76
2021/10/23 08:35:44;;;;;;;8.43;2.43;;;7.60;99.90;;;;;;5039225;28;20195;-77
2021/10/23 08:38:10;;;;;;;4.30;1.80;;;7.60;99.90;;;;;;5036341;28;20205;-77
2021/10/23 08:40:36;;;;;;;3.70;3.40;;;7.70;99.90;;;;;;5035174;28;20263;-74
2021/10/23 08:43:04;;;;;;;8.67;1.90;;;7.70;99.90;;;;;;5040055;28;20170;-76
2021/10/23 08:45:31;;;;;;;6.00;2.77;;;7.80;99.90;;;;;;5037169;28;20172;-77
2021/10/23 08:48:00;;;;;;;6.03;2.00;;;7.90;99.90;;;;;;5038105;28;20428;-76
2021/10/23 08:50:26;;;;;;;6.70;1.80;;;8.00;99.90;;;;;;5038965;28;20428;-76
2021/10/23 08:52:56;;;;;;;8.73;2.73;;;8.00;99.90;;;;;;5037747;28;20750;-75
2021/10/23 08:55:22;;;;;;;7.23;2.20;;;8.00;99.90;;;;;;5038607;28;20212;-75
2021/10/23 08:58:11;;;;;;;8.43;1.90;;;8.00;99.90;;;;;;5035071;28;20450;-81
2021/10/23 09:00:38;;;;;;;5.13;1.63;;;8.10;99.90;;;;;;5026658;28;20482;-73
2021/10/23 09:03:03;;;;;;;10.57;2.17;;;8.00;99.90;;;;;;5035147;28;20428;-74
2021/10/23 09:05:33;;;;;;;8.13;1.83;;;8.00;99.90;;;;;;5036961;28;20903;-73
2021/10/23 09:08:10;;;;;;;5.17;1.80;;;8.20;99.90;;;;;;5039266;28;20335;-79
2021/10/23 09:10:35;;;;;;;9.63;3.40;;;8.20;99.90;;;;;;5037522;28;20431;-74
2021/10/23 09:13:04;;;;;;;5.80;1.90;;;8.30;99.90;;;;;;5036878;28;20432;-75
2021/10/23 09:15:38;;;;;;;4.00;2.07;;;8.30;99.90;;;;;;5038959;28;20276;-72
2021/10/23 09:18:05;;;;;;;5.03;1.97;;;8.30;99.90;;;;;;5038590;28;23463;-73
2021/10/23 09:20:40;;;;;;;2.20;1.67;;;8.40;99.90;;;;;;5038386;28;20494;-74
2021/10/23 09:23:17;;;;;;;8.70;2.27;;;8.60;99.90;;;;;;5037252;28;20424;-73
2021/10/23 09:25:44;;;;;;;3.77;1.87;;;8.70;99.90;;;;;;5037453;28;20434;-73
2021/10/23 09:28:15;;;;;;;5.40;2.37;;;8.80;99.90;;;;;;5037296;28;20866;-73
2021/10/23 09:30:50;;;;;;;6.20;1.80;;;8.90;99.90;;;;;;5033124;28;20427;-74
2021/10/23 09:33:19;;;;;;;7.00;2.53;;;9.00;99.90;;;;;;5039235;28;20430;-74
2021/10/23 09:35:49;;;;;;;3.37;1.83;;;9.20;99.90;;;;;;5034575;28;20872;-73
2021/10/23 09:38:17;;;;;;;3.90;2.13;;;9.20;99.90;;;;;;5035039;28;20459;-73
2021/10/23 09:40:44;;;;;;;7.90;1.77;;;9.30;99.90;;;;;;5035728;28;20425;-73
2021/10/23 09:43:11;;;;;;;5.13;1.80;;;9.30;99.90;;;;;;5035918;28;20424;-73
2021/10/23 09:46:02;;;;;;;4.53;2.17;;;9.30;99.90;;;;;;5034127;28;20432;-73
2021/10/23 09:48:44;;;;;;;7.27;1.57;;;9.40;99.90;;;;;;5031492;28;20439;-73
2021/10/23 09:51:16;;;;;;;3.83;1.67;;;9.60;99.90;;;;;;5035843;28;20443;-74
2021/10/23 09:53:44;;;;;;;4.83;2.10;;;9.80;99.90;;;;;;5034157;28;20439;-72
2021/10/23 09:56:36;;;;;;;4.00;1.70;;;9.90;99.90;;;;;;5035715;28;20458;-74
2021/10/23 09:59:12;;;;;;;2.10;1.60;;;10.10;99.90;;;;;;5031119;28;20460;-73
2021/10/23 10:01:42;;;;;;;1.00;0.90;;;10.10;99.90;;;;;;5036844;28;20433;-73
2021/10/23 10:04:13;;;;;;;8.63;1.77;;;10.00;99.90;;;;;;5040021;28;20442;-72
2021/10/23 10:06:41;;;;;;;5.93;1.70;;;10.00;99.90;;;;;;5036899;28;20822;-72
2021/10/23 10:09:09;;;;;;;3.17;1.90;;;9.90;99.90;;;;;;5042821;28;20912;-74
2021/10/23 10:11:37;;;;;;;2.93;1.40;;;9.90;99.90;;;;;;5041139;28;20471;-77
2021/10/23 10:14:08;;;;;;;4.30;1.30;;;9.90;99.90;;;;;;5040319;28;20470;-72
2021/10/23 10:16:35;;;;;;;5.50;1.97;;;10.00;99.90;;;;;;5040843;28;20940;-72
2021/10/23 10:19:00;;;;;;;6.97;1.30;;;10.20;99.90;;;;;;5041373;28;20490;-73
2021/10/23 10:21:33;;;;;;;2.43;1.80;;;10.20;99.90;;;;;;5040893;28;20482;-75
2021/10/23 10:23:59;;;;;;;2.77;1.67;;;10.20;99.90;;;;;;5041605;28;20183;-74
2021/10/23 10:26:34;;;;;;;4.67;1.80;;;10.10;99.90;;;;;;5042916;28;20428;-75
2021/10/23 10:29:28;;;;;;;5.40;1.53;;;10.30;99.90;;;;;;5042167;28;20813;-74
2021/10/23 10:42:55;;;;;;;2.80;1.60;;;11.00;99.90;;;;;;5050132;28;20430;-74
2021/10/23 10:45:50;;;;;;;6.43;2.27;;;11.30;99.90;;;;;;5040188;28;20928;-74
2021/10/23 10:48:29;;;;;;;6.37;2.40;;;11.10;99.90;;;;;;5048942;28;20420;-75
2021/10/23 10:50:59;;;;;;;2.53;1.77;;;10.80;99.90;;;;;;5044881;28;20593;-76
2021/10/23 10:53:46;;;;;;;6.37;1.33;;;10.60;99.90;;;;;;5049755;28;20437;-75
2021/10/23 10:56:14;;;;;;;2.10;1.50;;;10.50;99.90;;;;;;5031421;28;20479;-76
2021/10/23 10:58:53;;;;;;;2.23;1.63;;;10.50;99.90;;;;;;5044273;28;20467;-75
2021/10/23 11:01:22;;;;;;;5.27;2.77;;;10.60;99.90;;;;;;5042236;28;20443;-74
2021/10/23 11:04:03;;;;;;;5.90;1.33;;;10.70;99.90;;;;;;5041177;28;20439;-73
2021/10/23 11:09:14;;;;;;;1.80;1.40;;;10.90;99.90;;;;;;5041335;28;20497;-77
2021/10/23 11:11:45;;;;;;;6.93;2.23;;;10.90;99.90;;;;;;5036370;28;20157;-73
2021/10/23 11:14:36;;;;;;;9.93;1.90;;;10.90;99.90;;;;;;5041643;28;20503;-72
2021/10/23 11:17:03;;;;;;;3.50;1.70;;;10.90;99.90;;;;;;5059294;28;22359;-71
2021/10/23 11:19:53;;;;;;;5.73;1.53;;;11.00;99.90;;;;;;5055094;28;20550;-73
2021/10/23 11:22:24;;;;;;;1.10;1.00;;;11.10;99.90;;;;;;5041279;28;20429;-73
2021/10/23 11:25:03;;;;;;;2.50;1.50;;;11.20;99.90;;;;;;5041366;28;20908;-73
2021/10/23 11:27:50;;;;;;;11.20;1.93;;;11.40;99.90;;;;;;5040078;28;20429;-75
2021/10/23 11:30:29;;;;;;;5.53;1.50;;;11.50;99.90;;;;;;5038926;28;20431;-76
2021/10/23 11:33:02;;;;;;;3.70;1.10;;;11.60;99.90;;;;;;5046705;28;20995;-76
2021/10/23 11:35:39;;;;;;;1.23;1.13;;;11.80;99.90;;;;;;5044373;28;20439;-76
2021/10/23 11:38:18;;;;;;;1.20;1.10;;;11.80;99.90;;;;;;5039618;28;20431;-76
2021/10/23 11:40:44;;;;;;;4.13;1.30;;;11.70;99.90;;;;;;5041576;28;20448;-76
2021/10/23 11:43:19;;;;;;;3.27;1.00;;;11.70;99.90;;;;;;5043046;28;20428;-75
2021/10/23 11:45:46;;;;;;;7.20;1.50;;;11.60;99.90;;;;;;5040127;28;20604;-75
2021/10/23 11:48:12;;;;;;;1.60;1.20;;;11.60;99.90;;;;;;5041171;28;20434;-75
2021/10/23 11:50:47;;;;;;;2.23;1.10;;;11.60;99.90;;;;;;5041710;28;20424;-75
2021/10/23 11:53:29;;;;;;;3.70;1.33;;;11.70;99.90;;;;;;5045283;28;20481;-75
2021/10/23 11:56:01;;;;;;;4.67;1.20;;;11.80;99.90;;;;;;5040647;28;20458;-75
2021/10/23 11:58:29;;;;;;;2.67;1.20;;;11.90;99.90;;;;;;5044300;28;20494;-75
2021/10/23 12:00:57;;;;;;;1.90;1.57;;;12.00;99.90;;;;;;5043599;28;20523;-75
2021/10/23 12:03:30;;;;;;;4.70;1.37;;;12.10;99.90;;;;;;5051322;28;20437;-75
2021/10/23 12:05:56;;;;;;;1.53;1.33;;;12.10;99.90;;;;;;5047832;28;20503;-75
2021/10/23 12:08:29;;;;;;;1.37;1.20;;;12.20;99.90;;;;;;5052164;28;20448;-75
2021/10/23 12:11:23;;;;;;;5.60;1.80;;;12.50;99.90;;;;;;5051412;28;20432;-75
2021/10/23 12:13:52;;;;;;;8.17;2.30;;;12.40;99.90;;;;;;5041146;28;20793;-75
2021/10/23 12:16:31;;;;;;;5.50;1.27;;;12.50;99.90;;;;;;5035898;28;20763;-75
2021/10/23 12:19:04;;;;;;;4.27;1.00;;;12.40;99.90;;;;;;5035724;28;21819;-76
2021/10/23 12:21:46;;;;;;;1.53;0.83;;;12.20;99.90;;;;;;5036895;28;21128;-78
2021/10/23 12:24:16;;;;;;;2.80;1.30;;;12.20;99.90;;;;;;5032916;28;20431;-78
2021/10/23 12:26:42;;;;;;;2.00;1.67;;;12.30;99.90;;;;;;5035360;28;20502;-78
2021/10/23 12:29:12;;;;;;;4.80;1.23;;;12.40;99.90;;;;;;5035834;28;21195;-79
2021/10/23 12:31:57;;;;;;;4.70;1.30;;;12.60;99.90;;;;;;5040532;28;20493;-79
2021/10/23 12:34:25;;;;;;;1.60;1.40;;;12.60;99.90;;;;;;5031013;28;20427;-79
2021/10/23 12:36:56;;;;;;;4.67;1.20;;;12.60;99.90;;;;;;5031697;28;20551;-79
2021/10/23 12:39:29;;;;;;;4.60;1.00;;;12.60;99.90;;;;;;5035302;28;20459;-73
2021/10/23 12:41:56;;;;;;;2.60;1.50;;;12.30;99.90;;;;;;5032030;28;20523;-74
2021/10/23 12:44:26;;;;;;;3.30;2.10;;;12.20;99.90;;;;;;5033581;28;20459;-76
2021/10/23 12:46:53;;;;;;;8.67;1.53;;;12.10;99.90;;;;;;5040160;28;20450;-75
2021/10/23 12:49:21;;;;;;;8.03;1.40;;;12.00;99.90;;;;;;5036878;28;20454;-75
2021/10/23 12:51:48;;;;;;;3.90;1.13;;;11.90;99.90;;;;;;5038732;28;20451;-74
2021/10/23 12:54:16;;;;;;;1.80;1.00;;;11.90;99.90;;;;;;5036899;28;20420;-75
2021/10/23 12:56:44;;;;;;;4.73;1.20;;;11.80;99.90;;;;;;5037260;28;21000;-75
2021/10/23 12:59:10;;;;;;;3.43;1.30;;;11.80;99.90;;;;;;5036704;28;20488;-74
2021/10/23 13:01:36;;;;;;;7.17;1.50;;;11.60;99.90;;;;;;5038231;28;20411;-74
2021/10/23 13:04:03;;;;;;;2.33;2.00;;;11.60;99.90;;;;;;5041771;28;20404;-76
2021/10/23 13:06:29;;;;;;;4.50;1.30;;;11.50;99.90;;;;;;5043388;28;20404;-75
2021/10/23 13:08:54;;;;;;;4.23;1.27;;;11.30;99.90;;;;;;5047453;28;20419;-76
2021/10/23 13:11:20;;;;;;;1.73;1.10;;;11.30;99.90;;;;;;5048703;28;20174;-76
2021/10/23 13:13:46;;;;;;;1.20;1.00;;;11.30;99.90;;;;;;5050714;28;20649;-76